Time;durP1;ratioP1;P1;durP2;ratioP2;P2;SDS_P1;SDS_P2;PMS_P1;PMS_P2;Temp;Humidity;BMP_temperature;BMP_pressure;BME280_temperature;BME280_humidity;BME280_pressure;Samples;Min_cycle;Max_cycle;Signal;HPM_P1;HPM_P2
2023/01/28 00:02:15;;;;;;;0.40;0.40;;;;;;;20.20;34.49;103055.16;5059480;28;20063;-63
2023/01/28 00:04:41;;;;;;;0.45;0.45;;;;;;;20.27;34.43;103057.28;5060838;28;20029;-63
2023/01/28 00:07:06;;;;;;;0.40;0.40;;;;;;;20.23;34.42;103060.19;5063314;28;20519;-62
2023/01/28 00:09:32;;;;;;;0.60;0.60;;;;;;;20.18;34.63;103054.44;5063466;28;20056;-63
2023/01/28 00:11:57;;;;;;;0.40;0.40;;;;;;;20.21;34.59;103051.53;5060106;28;20028;-63
2023/01/28 00:14:23;;;;;;;0.32;0.32;;;;;;;20.15;34.48;103038.84;5059548;28;20047;-63
2023/01/28 00:16:49;;;;;;;0.60;0.60;;;;;;;20.22;34.40;103044.44;5058833;28;20045;-62
2023/01/28 00:19:14;;;;;;;0.40;0.40;;;;;;;20.14;34.56;103038.97;5057962;28;20040;-63
2023/01/28 00:21:40;;;;;;;0.45;0.40;;;;;;;20.03;34.56;103037.19;5057067;28;20099;-63
2023/01/28 00:24:08;;;;;;;0.50;0.50;;;;;;;20.17;34.53;103038.69;5060809;28;20047;-63
2023/01/28 00:26:34;;;;;;;0.30;0.30;;;;;;;20.07;34.60;103043.06;5057727;28;20036;-63
2023/01/28 00:29:00;;;;;;;0.70;0.40;;;;;;;20.17;34.48;103044.00;5050842;28;20082;-63
2023/01/28 00:31:26;;;;;;;0.52;0.52;;;;;;;20.07;34.59;103049.19;5053963;28;20573;-63
2023/01/28 00:33:53;;;;;;;0.43;0.43;;;;;;;20.03;34.68;103041.66;5040892;28;20029;-62
2023/01/28 00:36:21;;;;;;;0.85;0.55;;;;;;;20.10;34.55;103038.34;5059834;28;20068;-62
2023/01/28 00:38:55;;;;;;;0.30;0.30;;;;;;;20.08;34.64;103035.00;5057457;28;20120;-62
2023/01/28 00:41:23;;;;;;;0.50;0.50;;;;;;;20.10;34.41;103029.59;5056499;28;21303;-63
2023/01/28 00:43:51;;;;;;;0.40;0.40;;;;;;;20.01;34.64;103025.06;5060653;28;20044;-63
2023/01/28 00:46:17;;;;;;;0.68;0.45;;;;;;;19.97;34.75;103035.06;5055849;28;20093;-63
2023/01/28 00:48:43;;;;;;;0.60;0.60;;;;;;;20.10;34.44;103024.28;5074593;28;21013;-63
2023/01/28 00:51:10;;;;;;;0.73;0.73;;;;;;;19.92;34.69;103032.78;5057367;28;20111;-63
2023/01/28 00:53:37;;;;;;;0.50;0.50;;;;;;;19.91;34.80;103032.91;5059813;28;20508;-63
2023/01/28 00:56:07;;;;;;;0.45;0.45;;;;;;;19.98;34.79;103043.84;5060297;28;20036;-62
2023/01/28 00:58:33;;;;;;;0.30;0.30;;;;;;;19.93;34.70;103036.31;5058864;28;20060;-63
2023/01/28 01:01:10;;;;;;;0.38;0.38;;;;;;;19.89;34.66;103034.84;5077971;28;20085;-63
2023/01/28 01:03:36;;;;;;;0.35;0.35;;;;;;;19.93;34.78;103036.31;5060459;28;20040;-63
2023/01/28 01:06:01;;;;;;;0.30;0.30;;;;;;;19.90;34.74;103045.31;5064325;28;20060;-62
2023/01/28 01:08:33;;;;;;;0.80;0.60;;;;;;;19.89;34.73;103040.97;5062514;28;20730;-63
2023/01/28 01:11:03;;;;;;;0.60;0.30;;;;;;;19.91;34.68;103040.84;5076327;28;20044;-63
2023/01/28 01:13:33;;;;;;;0.32;0.32;;;;;;;19.95;34.58;103038.81;5061396;28;20039;-63
2023/01/28 01:16:07;;;;;;;0.40;0.40;;;;;;;19.91;34.66;103046.13;5061214;28;20044;-63
2023/01/28 01:18:33;;;;;;;1.02;0.70;;;;;;;19.91;34.72;103041.69;5067848;28;20840;-62
2023/01/28 01:21:00;;;;;;;0.28;0.28;;;;;;;19.86;34.66;103041.25;5059511;28;20028;-63
2023/01/28 01:23:27;;;;;;;0.43;0.43;;;;;;;19.84;34.72;103032.59;5059986;28;20467;-63
2023/01/28 01:25:53;;;;;;;0.52;0.52;;;;;;;19.86;34.72;103037.75;5064626;28;20052;-62
2023/01/28 01:28:19;;;;;;;0.50;0.50;;;;;;;19.86;34.80;103043.03;5060535;28;20037;-63
2023/01/28 01:30:46;;;;;;;0.38;0.38;;;;;;;19.78;34.90;103042.84;5065813;28;20132;-62
2023/01/28 01:33:11;;;;;;;0.45;0.45;;;;;;;19.79;34.88;103042.72;5053220;28;20390;-62
2023/01/28 01:35:37;;;;;;;0.50;0.50;;;;;;;19.87;34.63;103042.06;5069768;28;20052;-63
2023/01/28 01:38:03;;;;;;;0.40;0.40;;;;;;;19.86;34.67;103045.69;5062695;28;20051;-63
2023/01/28 01:40:28;;;;;;;0.70;0.68;;;;;;;19.79;34.83;103049.81;5056328;28;20055;-62
2023/01/28 01:42:54;;;;;;;0.40;0.40;;;;;;;19.84;34.68;103052.91;5059645;28;20044;-63
2023/01/28 01:45:20;;;;;;;0.55;0.52;;;;;;;19.83;34.37;103052.06;5056885;28;20040;-63
2023/01/28 01:47:50;;;;;;;0.70;0.70;;;;;;;19.80;34.81;103051.50;5054814;28;20115;-64
2023/01/28 01:50:22;;;;;;;0.43;0.43;;;;;;;19.74;34.97;103051.97;5059080;28;20501;-63
2023/01/28 01:52:52;;;;;;;0.45;0.30;;;;;;;19.71;34.83;103045.13;5057782;28;20040;-63
2023/01/28 01:55:24;;;;;;;0.38;0.38;;;;;;;19.74;34.84;103052.81;5070738;28;20055;-63
2023/01/28 01:57:59;;;;;;;0.25;0.25;;;;;;;19.77;34.88;103049.94;5057804;28;20029;-62
2023/01/28 02:00:24;;;;;;;0.55;0.40;;;;;;;19.80;34.83;103044.41;5055463;28;20482;-62
2023/01/28 02:02:52;;;;;;;0.35;0.35;;;;;;;19.75;34.85;103043.94;5057952;28;20060;-63
2023/01/28 02:05:21;;;;;;;0.30;0.30;;;;;;;19.77;34.82;103039.38;5056450;28;20036;-63
2023/01/28 02:07:49;;;;;;;0.63;0.50;;;;;;;19.80;34.78;103043.56;5058781;28;20029;-63
2023/01/28 02:10:17;;;;;;;0.57;0.57;;;;;;;19.77;34.80;103051.75;5057636;28;20063;-63
2023/01/28 02:12:46;;;;;;;1.25;0.68;;;;;;;19.72;34.91;103048.63;5060698;28;20143;-62
2023/01/28 02:15:20;;;;;;;0.40;0.40;;;;;;;19.77;34.86;103062.31;5056228;28;20037;-63
2023/01/28 02:17:48;;;;;;;0.20;0.20;;;;;;;19.66;35.08;103065.81;5059564;28;20025;-63
2023/01/28 02:20:23;;;;;;;0.47;0.43;;;;;;;19.78;34.78;103064.00;5054208;28;21579;-63
2023/01/28 02:22:51;;;;;;;0.43;0.43;;;;;;;19.79;34.74;103060.38;5057869;28;20037;-63
2023/01/28 02:25:42;;;;;;;0.10;0.10;;;;;;;19.72;34.90;103060.03;5052310;28;20025;-63
2023/01/28 02:28:13;;;;;;;0.38;0.38;;;;;;;19.76;34.81;103060.66;5056116;28;20057;-63
2023/01/28 02:30:46;;;;;;;0.43;0.35;;;;;;;19.74;34.89;103058.09;5075914;28;20032;-63
2023/01/28 02:33:38;;;;;;;0.40;0.40;;;;;;;19.78;34.74;103048.13;5057453;28;20036;-62
2023/01/28 02:36:13;;;;;;;1.45;0.63;;;;;;;19.68;34.94;103053.31;5057587;28;20043;-63
2023/01/28 02:38:45;;;;;;;0.70;0.47;;;;;;;19.76;34.79;103060.66;5054906;28;20036;-62
2023/01/28 02:41:20;;;;;;;0.40;0.40;;;;;;;19.64;34.97;103053.72;5054032;28;20471;-63
2023/01/28 02:43:46;;;;;;;0.43;0.43;;;;;;;19.64;35.03;103051.91;5056771;28;20028;-63
2023/01/28 02:49:18;;;;;;;0.47;0.47;;;;;;;19.63;35.09;103049.38;5057347;28;20036;-63
2023/01/28 02:52:18;;;;;;;0.50;0.50;;;;;;;19.60;35.01;103048.69;5072331;28;20071;-63
2023/01/28 02:55:07;;;;;;;0.20;0.20;;;;;;;19.62;35.06;103045.91;5056133;28;20563;-62
2023/01/28 02:57:46;;;;;;;0.40;0.40;;;;;;;19.68;34.72;103045.41;5059511;28;20156;-63
2023/01/28 03:00:17;;;;;;;;;;;;;;;19.68;34.97;103041.91;5037191;28;20047;-63
2023/01/28 03:03:07;;;;;;;0.32;0.32;;;;;;;19.58;35.16;103042.69;5062524;28;20326;-63
2023/01/28 03:06:02;;;;;;;0.43;0.43;;;;;;;19.64;34.98;103045.78;5058675;28;20143;-62
2023/01/28 03:36:48;;;;;;;0.70;0.50;;;;;;;19.58;35.01;103042.69;5055435;28;20094;-63
2023/01/28 03:39:37;;;;;;;0.77;0.50;;;;;;;19.57;35.06;103025.16;5053813;28;20068;-62
2023/01/28 03:42:06;;;;;;;0.40;0.40;;;;;;;19.53;35.11;103031.59;5056772;28;20047;-63
2023/01/28 03:44:52;;;;;;;0.22;0.22;;;;;;;19.58;34.89;103039.19;5069705;28;20037;-63
2023/01/28 03:47:21;;;;;;;0.25;0.25;;;;;;;19.54;35.09;103043.88;5055681;28;20115;-63
2023/01/28 03:49:50;;;;;;;0.30;0.30;;;;;;;19.57;34.97;103045.44;5066611;28;20032;-63
2023/01/28 03:52:24;;;;;;;0.40;0.40;;;;;;;19.55;35.09;103053.47;5056816;28;20036;-63
2023/01/28 03:54:53;;;;;;;0.52;0.20;;;;;;;19.45;35.22;103060.44;5057586;28;20072;-63
2023/01/28 03:57:22;;;;;;;0.55;0.40;;;;;;;19.46;35.26;103061.28;5055486;28;20391;-63
2023/01/28 03:59:48;;;;;;;0.20;0.20;;;;;;;19.57;35.09;103059.50;5058665;28;20127;-63
2023/01/28 04:02:16;;;;;;;0.30;0.30;;;;;;;19.55;35.03;103063.19;5056295;28;20035;-63
2023/01/28 04:04:42;;;;;;;0.35;0.35;;;;;;;19.54;35.08;103058.88;5057776;28;20066;-62
2023/01/28 04:07:13;;;;;;;0.05;0.05;;;;;;;19.51;35.11;103061.75;5059613;28;20655;-63
2023/01/28 04:09:57;;;;;;;0.70;0.50;;;;;;;19.48;35.32;103056.72;5059855;28;20198;-63
2023/01/28 04:12:36;;;;;;;0.40;0.40;;;;;;;19.49;35.17;103061.03;5056847;28;20048;-63
2023/01/28 04:15:14;;;;;;;0.60;0.57;;;;;;;19.47;35.18;103058.50;5070879;28;20700;-63
2023/01/28 04:17:44;;;;;;;0.30;0.30;;;;;;;19.51;34.96;103061.75;5060175;28;20033;-63
2023/01/28 04:20:11;;;;;;;0.45;0.30;;;;;;;19.49;35.26;103051.31;5057190;28;20060;-63
2023/01/28 04:22:37;;;;;;;0.73;0.70;;;;;;;19.41;35.31;103051.09;5057183;28;20513;-63
2023/01/28 04:25:06;;;;;;;0.57;0.40;;;;;;;19.51;35.11;103044.09;5057815;28;20040;-62
2023/01/28 04:27:32;;;;;;;0.30;0.30;;;;;;;19.49;35.14;103042.53;5056943;28;20764;-63
2023/01/28 04:30:07;;;;;;;0.30;0.30;;;;;;;19.45;35.14;103036.66;5059101;28;20098;-63
2023/01/28 04:32:38;;;;;;;0.20;0.20;;;;;;;19.45;35.26;103033.19;5058608;28;20051;-63
2023/01/28 04:35:23;;;;;;;0.45;0.25;;;;;;;19.48;35.10;103025.84;5060308;28;20182;-62
2023/01/28 04:38:12;;;;;;;0.65;0.40;;;;;;;19.45;35.23;103028.75;5058644;28;20099;-63
2023/01/28 04:40:51;;;;;;;0.52;0.20;;;;;;;19.48;35.18;103031.13;5056978;28;20067;-62
2023/01/28 04:43:35;;;;;;;0.30;0.30;;;;;;;19.48;35.08;103017.91;5061050;28;20119;-63
2023/01/28 04:46:32;;;;;;;0.43;0.43;;;;;;;19.47;35.02;103018.03;5036104;28;20028;-63
2023/01/28 04:49:07;;;;;;;0.30;0.30;;;;;;;19.49;35.11;103030.16;5072963;28;20043;-63
2023/01/28 04:51:46;;;;;;;0.22;0.13;;;;;;;19.40;35.03;103033.56;5058933;28;20366;-62
2023/01/28 04:54:31;;;;;;;0.40;0.40;;;;;;;19.47;35.07;103026.81;5060501;28;20058;-62
2023/01/28 04:56:59;;;;;;;0.20;0.20;;;;;;;19.47;35.08;103026.81;5055408;28;20033;-63
2023/01/28 04:59:25;;;;;;;0.50;0.40;;;;;;;19.37;35.39;103044.34;5057743;28;20348;-63
2023/01/28 05:01:51;;;;;;;0.40;0.40;;;;;;;19.36;35.29;103041.84;5055610;28;20044;-62
2023/01/28 05:04:17;;;;;;;0.20;0.20;;;;;;;19.39;35.21;103047.75;5057346;28;20047;-63
2023/01/28 05:06:43;;;;;;;0.40;0.30;;;;;;;19.43;35.29;103043.88;5060127;28;20833;-63
2023/01/28 05:09:13;;;;;;;0.30;0.30;;;;;;;19.42;35.26;103030.78;5057904;28;20403;-62
2023/01/28 05:11:39;;;;;;;0.20;0.20;;;;;;;19.30;35.45;103040.53;5065328;28;20067;-63
2023/01/28 05:14:06;;;;;;;0.30;0.30;;;;;;;19.40;35.26;103035.38;5059233;28;20032;-63
2023/01/28 05:16:45;;;;;;;0.40;0.40;;;;;;;19.40;35.23;103032.72;5059842;28;20029;-62
2023/01/28 05:19:11;;;;;;;0.47;0.47;;;;;;;19.31;35.28;103029.84;5062714;28;20501;-63
2023/01/28 05:21:41;;;;;;;;;;;;;;;19.33;35.27;103021.78;5063580;28;20040;-63
2023/01/28 05:24:16;;;;;;;0.25;0.25;;;;;;;19.41;35.02;103022.03;5064112;28;19920;-63
2023/01/28 05:26:43;;;;;;;0.38;0.38;;;;;;;19.39;35.22;103013.38;5061390;28;20387;-63
2023/01/28 05:29:08;;;;;;;0.30;0.30;;;;;;;19.38;35.22;103016.13;5063040;28;20047;-62
2023/01/28 05:31:34;;;;;;;0.20;0.20;;;;;;;19.29;35.31;103018.56;5061161;28;20383;-62
2023/01/28 05:34:00;;;;;;;0.25;0.25;;;;;;;19.44;35.15;103023.56;5050220;28;20029;-63
2023/01/28 05:36:25;;;;;;;0.40;0.40;;;;;;;19.28;35.29;103002.84;5052125;28;20037;-63
2023/01/28 05:38:52;;;;;;;0.32;0.30;;;;;;;19.33;35.34;103008.59;5070591;28;20040;-63
2023/01/28 05:41:18;;;;;;;0.88;0.52;;;;;;;19.29;35.39;103008.00;5064929;28;20044;-63
2023/01/28 05:43:46;;;;;;;0.77;0.38;;;;;;;19.25;35.40;103008.38;5075105;28;20143;-62
2023/01/28 05:46:12;;;;;;;0.40;0.40;;;;;;;19.33;35.40;103014.69;5054832;28;20030;-63
2023/01/28 05:48:59;;;;;;;0.17;0.17;;;;;;;19.36;35.16;103010.97;5055796;28;20037;-63
2023/01/28 05:51:38;;;;;;;0.32;0.32;;;;;;;19.35;35.30;103008.44;5058416;28;20135;-62
2023/01/28 05:54:05;;;;;;;0.35;0.28;;;;;;;19.38;35.22;103011.69;5059082;28;20044;-63
2023/01/28 05:56:31;;;;;;;0.20;0.20;;;;;;;19.30;35.31;103011.47;5060750;28;20052;-63
2023/01/28 05:58:57;;;;;;;0.43;0.30;;;;;;;19.33;35.41;103008.59;5058919;28;20070;-62
2023/01/28 06:01:22;;;;;;;0.38;0.30;;;;;;;19.29;35.40;103010.63;5073491;28;20413;-63
2023/01/28 06:03:52;;;;;;;0.40;0.40;;;;;;;19.30;35.27;103014.13;5055595;28;20518;-63
2023/01/28 06:06:18;;;;;;;0.38;0.38;;;;;;;19.28;35.42;103016.03;5057884;28;20040;-62
2023/01/28 06:08:43;;;;;;;0.22;0.22;;;;;;;19.22;35.48;103008.63;5061842;28;20055;-63
2023/01/28 06:11:10;;;;;;;0.20;0.20;;;;;;;19.27;35.36;103012.56;5039569;28;20166;-62
2023/01/28 06:13:36;;;;;;;0.15;0.15;;;;;;;19.21;35.46;103012.19;5039288;28;20032;-62
2023/01/28 06:16:25;;;;;;;0.88;0.43;;;;;;;19.25;35.48;103026.88;5046162;28;20083;-63
2023/01/28 06:18:58;;;;;;;0.30;0.30;;;;;;;19.24;35.34;103017.25;5057144;28;20436;-62
2023/01/28 06:21:24;;;;;;;0.85;0.30;;;;;;;19.25;35.36;103022.41;5056187;28;20036;-63
2023/01/28 06:23:49;;;;;;;0.20;0.20;;;;;;;19.29;35.23;103033.56;5053001;28;20044;-63
2023/01/28 06:26:15;;;;;;;0.45;0.30;;;;;;;19.32;35.14;103036.81;5064769;28;20036;-63
2023/01/28 06:28:43;;;;;;;0.20;0.20;;;;;;;19.28;35.16;103040.66;5054422;28;20035;-62
2023/01/28 06:31:08;;;;;;;0.20;0.20;;;;;;;19.27;35.38;103035.50;5061763;28;20029;-62
2023/01/28 06:33:34;;;;;;;0.22;0.20;;;;;;;19.26;35.45;103025.91;5057182;28;20082;-62
2023/01/28 06:36:03;;;;;;;0.85;0.40;;;;;;;19.22;35.26;103014.75;5053784;28;20052;-62
2023/01/28 06:38:29;;;;;;;0.20;0.20;;;;;;;19.28;35.30;103023.97;5055805;28;20048;-62
2023/01/28 06:40:54;;;;;;;0.50;0.32;;;;;;;19.27;35.38;103038.16;5054506;28;20110;-62
2023/01/28 06:43:26;;;;;;;0.15;0.15;;;;;;;20.68;33.14;103032.63;5058808;28;20043;-63
2023/01/28 06:45:53;;;;;;;0.10;0.10;;;;;;;21.47;32.02;103017.69;5056882;28;20040;-62
2023/01/28 06:48:19;;;;;;;0.25;0.20;;;;;;;21.91;31.60;103020.78;5055779;28;20135;-62
2023/01/28 06:50:48;;;;;;;0.50;0.30;;;;;;;22.00;31.38;103023.41;5055528;28;20119;-62
2023/01/28 06:53:15;;;;;;;0.20;0.20;;;;;;;21.74;31.58;103027.63;5056953;28;20564;-63
2023/01/28 06:55:40;;;;;;;0.20;0.20;;;;;;;21.91;31.60;103028.75;5055275;28;20127;-62
2023/01/28 06:58:06;;;;;;;0.40;0.20;;;;;;;21.96;31.66;103032.66;5058573;28;20093;-63
2023/01/28 07:00:31;;;;;;;0.73;0.40;;;;;;;22.07;31.57;103031.66;5057514;28;20379;-63
2023/01/28 07:02:58;;;;;;;0.20;0.20;;;;;;;22.09;31.34;103037.69;5057503;28;20028;-63
2023/01/28 07:05:24;;;;;;;0.73;0.40;;;;;;;22.14;31.50;103050.53;5060521;28;20028;-63
2023/01/28 07:07:50;;;;;;;0.15;0.15;;;;;;;22.06;31.55;103050.38;5057662;28;20124;-63
2023/01/28 07:10:16;;;;;;;0.50;0.30;;;;;;;21.99;31.39;103050.09;5052672;28;20044;-62
2023/01/28 07:12:42;;;;;;;0.20;0.20;;;;;;;21.94;31.77;103062.94;5056924;28;20036;-63
2023/01/28 07:15:09;;;;;;;0.30;0.30;;;;;;;21.84;31.73;103057.63;5054949;28;20490;-62
2023/01/28 07:17:38;;;;;;;0.60;0.20;;;;;;;21.84;31.71;103059.44;5057178;28;20064;-63
2023/01/28 07:20:04;;;;;;;0.10;0.10;;;;;;;21.74;32.04;103053.31;5056415;28;20090;-63
2023/01/28 07:22:30;;;;;;;0.20;0.20;;;;;;;21.69;31.81;103061.66;5056927;28;20547;-63
2023/01/28 07:24:57;;;;;;;0.38;0.30;;;;;;;21.64;32.10;103061.25;5058179;28;20103;-63
2023/01/28 07:27:23;;;;;;;0.20;0.20;;;;;;;21.65;32.18;103055.81;5054341;28;20462;-62
2023/01/28 07:29:48;;;;;;;0.98;0.43;;;;;;;21.50;32.44;103053.69;5053365;28;20040;-63
2023/01/28 07:32:14;;;;;;;0.10;0.10;;;;;;;21.49;32.25;103050.19;5058503;28;20039;-63
2023/01/28 07:34:41;;;;;;;0.22;0.22;;;;;;;21.42;32.40;103049.91;5053009;28;20040;-63
2023/01/28 07:37:08;;;;;;;0.10;0.10;;;;;;;21.40;32.31;103046.56;5071001;28;20041;-63
2023/01/28 07:39:34;;;;;;;0.30;0.22;;;;;;;21.24;32.67;103040.09;5059790;28;20032;-62
2023/01/28 07:42:00;;;;;;;0.52;0.30;;;;;;;21.22;32.91;103052.63;5078897;28;20501;-63
2023/01/28 07:44:31;;;;;;;0.22;0.22;;;;;;;21.12;32.93;103053.44;5060843;28;20349;-63
2023/01/28 07:46:56;;;;;;;0.40;0.40;;;;;;;21.02;32.96;103057.88;5062401;28;20524;-63
2023/01/28 07:49:22;;;;;;;0.50;0.40;;;;;;;20.69;33.77;103047.53;5057358;28;20624;-62
2023/01/28 07:51:49;;;;;;;0.50;0.50;;;;;;;20.53;33.89;103055.97;5059480;28;20044;-63
2023/01/28 07:54:15;;;;;;;0.38;0.38;;;;;;;20.56;33.98;103052.19;5059770;28;20040;-63
2023/01/28 07:56:41;;;;;;;0.43;0.40;;;;;;;20.51;34.01;103052.59;5061856;28;20033;-62
2023/01/28 07:59:06;;;;;;;0.73;0.40;;;;;;;20.47;34.24;103044.09;5060986;28;20072;-63
2023/01/28 08:01:32;;;;;;;0.30;0.30;;;;;;;20.43;34.19;103047.94;5060306;28;20040;-63
2023/01/28 08:03:57;;;;;;;0.30;0.30;;;;;;;20.33;34.44;103047.03;5056416;28;20036;-63
2023/01/28 08:06:23;;;;;;;0.25;0.25;;;;;;;20.42;34.15;103064.78;5061584;28;20572;-63
2023/01/28 08:08:49;;;;;;;0.38;0.20;;;;;;;21.22;32.95;103064.06;5057067;28;20545;-62
2023/01/28 08:11:14;;;;;;;0.30;0.30;;;;;;;21.80;31.83;103047.44;5062809;28;20036;-63
2023/01/28 08:13:40;;;;;;;0.65;0.50;;;;;;;22.08;31.81;103053.72;5058167;28;20083;-63
2023/01/28 08:16:06;;;;;;;0.50;0.50;;;;;;;22.18;31.23;103050.09;5061621;28;20048;-63
2023/01/28 08:18:31;;;;;;;0.60;0.32;;;;;;;22.29;31.37;103057.09;5059715;28;20099;-63
2023/01/28 08:20:58;;;;;;;0.30;0.30;;;;;;;22.27;31.30;103080.28;5061518;28;20036;-63
2023/01/28 08:23:29;;;;;;;0.28;0.28;;;;;;;22.18;31.48;103097.03;5060950;28;20048;-63
2023/01/28 08:25:57;;;;;;;0.30;0.30;;;;;;;22.18;31.13;103097.03;5062954;28;20094;-63
2023/01/28 08:28:23;;;;;;;0.65;0.20;;;;;;;21.92;31.81;103100.22;5057831;28;20032;-64
2023/01/28 08:30:49;;;;;;;0.40;0.40;;;;;;;21.86;31.93;103099.91;5060669;28;20040;-64
2023/01/28 08:33:16;;;;;;;0.90;0.50;;;;;;;21.82;31.85;103111.78;5057046;28;20029;-65
2023/01/28 08:35:42;;;;;;;0.40;0.40;;;;;;;21.81;31.84;103124.22;5061220;28;20703;-64
2023/01/28 08:38:09;;;;;;;0.38;0.38;;;;;;;21.73;31.93;103108.16;5057927;28;20067;-64
2023/01/28 08:40:35;;;;;;;0.40;0.40;;;;;;;21.57;32.37;103118.47;5057595;28;20039;-65
2023/01/28 08:43:01;;;;;;;0.55;0.40;;;;;;;21.58;32.27;103118.31;5059090;28;20036;-64
2023/01/28 08:45:27;;;;;;;0.45;0.30;;;;;;;21.55;32.43;103115.09;5061601;28;20060;-64
2023/01/28 08:47:54;;;;;;;0.30;0.30;;;;;;;21.41;32.53;103129.56;5061446;28;20671;-64
2023/01/28 08:50:21;;;;;;;0.73;0.73;;;;;;;21.21;32.79;103131.28;5056385;28;20023;-64
2023/01/28 08:52:48;;;;;;;0.57;0.30;;;;;;;20.92;33.46;103128.50;5059014;28;20043;-64
2023/01/28 08:55:15;;;;;;;0.73;0.60;;;;;;;20.74;33.67;103127.41;5062791;28;20094;-64
2023/01/28 08:57:41;;;;;;;0.35;0.30;;;;;;;20.60;33.86;103123.28;5055622;28;20045;-64
2023/01/28 09:00:09;;;;;;;0.73;0.40;;;;;;;20.65;33.78;103131.69;5059746;28;20052;-64
2023/01/28 09:02:36;;;;;;;0.30;0.30;;;;;;;20.57;34.01;103138.59;5062530;28;20466;-64
2023/01/28 09:05:02;;;;;;;0.47;0.40;;;;;;;20.51;33.97;103139.94;5057232;28;20052;-64
2023/01/28 09:07:27;;;;;;;0.30;0.30;;;;;;;20.45;34.14;103143.09;5065120;28;20036;-64
2023/01/28 09:09:53;;;;;;;0.52;0.43;;;;;;;20.33;34.42;103137.00;5062333;28;20056;-64
2023/01/28 09:12:18;;;;;;;0.40;0.40;;;;;;;20.37;34.21;103127.81;5066322;28;20082;-64
2023/01/28 09:14:44;;;;;;;0.35;0.35;;;;;;;20.23;34.41;103121.03;5061765;28;20036;-64
2023/01/28 09:17:09;;;;;;;0.60;0.38;;;;;;;20.10;34.64;103119.50;5063471;28;20111;-64
2023/01/28 09:19:35;;;;;;;0.98;0.22;;;;;;;20.08;34.66;103119.63;5064103;28;20071;-64
2023/01/28 09:22:04;;;;;;;0.17;0.17;;;;;;;20.09;34.67;103126.63;5058945;28;20098;-64
2023/01/28 09:24:29;;;;;;;0.40;0.40;;;;;;;20.02;34.77;103128.09;5057962;28;20036;-64
2023/01/28 09:26:55;;;;;;;0.30;0.30;;;;;;;20.17;34.48;103126.84;5060177;28;20442;-64
2023/01/28 09:29:21;;;;;;;0.85;0.50;;;;;;;20.20;34.42;103138.97;5068107;28;20109;-64
2023/01/28 09:31:46;;;;;;;0.20;0.20;;;;;;;20.38;34.05;103126.03;5056854;28;20169;-64
2023/01/28 09:34:12;;;;;;;0.35;0.32;;;;;;;20.44;34.10;103125.53;5058785;28;20033;-63
2023/01/28 09:36:38;;;;;;;0.20;0.20;;;;;;;20.37;34.06;103135.75;5057698;28;20041;-63
2023/01/28 09:39:03;;;;;;;0.20;0.20;;;;;;;20.34;33.97;103129.91;5058644;28;20033;-63
2023/01/28 09:41:38;;;;;;;0.30;0.30;;;;;;;20.26;34.19;103121.75;5036043;28;20664;-63
2023/01/28 09:44:17;;;;;;;0.25;0.25;;;;;;;20.21;34.36;103127.41;5060492;28;20116;-64
2023/01/28 09:46:44;;;;;;;0.47;0.47;;;;;;;20.16;34.41;103122.50;5058652;28;20097;-65
2023/01/28 09:49:38;;;;;;;0.20;0.20;;;;;;;20.11;34.54;103134.44;5055486;28;20047;-65
2023/01/28 09:52:04;;;;;;;0.50;0.50;;;;;;;20.15;34.32;103135.88;5056080;28;20028;-64
2023/01/28 09:54:40;;;;;;;0.38;0.38;;;;;;;20.22;34.21;103137.03;5059353;28;20063;-64
2023/01/28 09:57:21;;;;;;;0.32;0.28;;;;;;;20.15;34.29;103138.50;5057393;28;20451;-64
2023/01/28 09:59:48;;;;;;;0.22;0.22;;;;;;;20.10;34.54;103133.56;5059863;28;20044;-64
2023/01/28 10:02:48;;;;;;;0.20;0.20;;;;;;;20.05;34.45;103135.78;5055880;28;20374;-64
2023/01/28 10:05:51;;;;;;;1.35;0.38;;;;;;;20.60;33.16;103130.38;5055668;28;20122;-64
2023/01/28 10:08:33;;;;;;;0.75;0.57;;;;;;;21.44;31.66;103134.59;5048784;28;20087;-64
2023/01/28 10:11:23;;;;;;;0.20;0.20;;;;;;;21.91;30.97;103121.59;5058693;28;20062;-64
2023/01/28 10:14:07;;;;;;;0.30;0.30;;;;;;;22.09;30.66;103119.13;5057019;28;20036;-64
2023/01/28 10:16:38;;;;;;;0.60;0.60;;;;;;;22.02;30.86;103116.97;5052055;28;20049;-64
2023/01/28 10:19:15;;;;;;;0.45;0.45;;;;;;;21.97;30.85;103115.72;5057363;28;20044;-64
2023/01/28 10:22:02;;;;;;;1.08;0.32;;;;;;;21.92;30.98;103108.19;5052241;28;20045;-64
2023/01/28 10:24:33;;;;;;;0.28;0.28;;;;;;;21.78;31.21;103111.22;5049964;28;20156;-64
2023/01/28 10:26:59;;;;;;;0.38;0.30;;;;;;;21.75;30.97;103095.59;5054109;28;20036;-65
2023/01/28 10:29:30;;;;;;;0.38;0.30;;;;;;;21.63;31.53;103086.09;5054270;28;20646;-65
2023/01/28 10:32:05;;;;;;;0.30;0.30;;;;;;;21.52;31.57;103084.38;5053311;28;20033;-64
2023/01/28 10:34:30;;;;;;;0.40;0.40;;;;;;;21.40;31.73;103069.59;5056441;28;20070;-64
2023/01/28 10:36:57;;;;;;;0.13;0.13;;;;;;;21.32;31.89;103059.66;5052332;28;20479;-65
2023/01/28 10:39:25;;;;;;;0.65;0.50;;;;;;;21.19;31.99;103050.25;5053942;28;20037;-64
2023/01/28 10:41:51;;;;;;;0.25;0.25;;;;;;;21.07;32.32;103041.56;5057160;28;20064;-64
2023/01/28 10:44:37;;;;;;;0.30;0.30;;;;;;;20.70;32.83;103033.34;5055800;28;20044;-64
2023/01/28 10:47:13;;;;;;;0.20;0.20;;;;;;;20.75;32.98;103024.00;5054970;28;20425;-63
2023/01/28 10:49:49;;;;;;;0.57;0.50;;;;;;;20.99;32.43;103030.78;5057241;28;20045;-63
2023/01/28 10:52:15;;;;;;;0.20;0.20;;;;;;;21.01;32.30;103020.91;5055422;28;20039;-64
2023/01/28 10:54:41;;;;;;;0.38;0.38;;;;;;;20.72;33.00;103026.09;5062486;28;20528;-64
2023/01/28 10:57:12;;;;;;;0.32;0.20;;;;;;;20.63;32.94;103019.78;5051938;28;20036;-64
2023/01/28 10:59:41;;;;;;;0.20;0.20;;;;;;;20.63;33.04;103027.72;5058788;28;20049;-64
2023/01/28 11:02:25;;;;;;;1.23;0.43;;;;;;;20.49;33.52;103028.91;5057765;28;20045;-64
2023/01/28 11:05:19;;;;;;;0.40;0.40;;;;;;;20.49;33.16;103018.34;5059599;28;20051;-64
2023/01/28 11:07:47;;;;;;;0.28;0.28;;;;;;;20.52;33.10;103023.34;5057040;28;20047;-64
2023/01/28 11:10:27;;;;;;;0.17;0.17;;;;;;;20.47;33.41;103041.44;5055199;28;20064;-64
2023/01/28 11:12:58;;;;;;;0.20;0.20;;;;;;;20.31;33.65;103027.81;5059917;28;20063;-64
2023/01/28 11:15:24;;;;;;;1.17;0.40;;;;;;;20.34;33.57;103034.63;5061421;28;20482;-64
2023/01/28 11:18:23;;;;;;;0.52;0.35;;;;;;;20.24;33.54;103034.56;5061327;28;20038;-64
2023/01/28 11:21:17;;;;;;;0.60;0.40;;;;;;;20.12;33.71;103036.44;5062414;28;20028;-64
2023/01/28 11:24:18;;;;;;;0.15;0.15;;;;;;;20.35;33.13;103044.25;5057228;28;20049;-64
2023/01/28 11:26:49;;;;;;;0.80;0.50;;;;;;;21.18;31.83;103046.75;5061683;28;20497;-64
2023/01/28 11:29:41;;;;;;;0.20;0.20;;;;;;;21.94;30.35;103052.34;5058760;28;20254;-64
2023/01/28 11:32:17;;;;;;;0.30;0.30;;;;;;;22.24;30.22;103049.53;5056167;28;20106;-64
2023/01/28 11:34:52;;;;;;;0.38;0.38;;;;;;;22.14;29.98;103043.41;5060898;28;20162;-64
2023/01/28 11:37:21;;;;;;;0.38;0.38;;;;;;;22.14;29.81;103054.03;5057078;28;20037;-64
2023/01/28 11:39:48;;;;;;;0.30;0.30;;;;;;;22.03;30.18;103054.13;5064690;28;20089;-64
2023/01/28 11:42:19;;;;;;;0.28;0.28;;;;;;;21.82;30.64;103050.78;5064142;28;20045;-64
2023/01/28 11:44:46;;;;;;;0.38;0.38;;;;;;;21.74;30.80;103048.84;5058655;28;20032;-64
2023/01/28 11:47:18;;;;;;;0.45;0.45;;;;;;;21.48;30.93;103045.03;5057262;28;20039;-64
2023/01/28 11:50:08;;;;;;;0.30;0.30;;;;;;;21.36;31.64;103045.19;5061531;28;20045;-64
2023/01/28 11:52:53;;;;;;;0.30;0.30;;;;;;;21.30;31.58;103043.03;5055634;28;20041;-64
2023/01/28 11:55:22;;;;;;;2.67;1.25;;;;;;;21.19;31.75;103037.00;5057310;28;20045;-65
2023/01/28 11:58:01;;;;;;;0.93;0.55;;;;;;;21.05;32.12;103044.34;5058471;28;20070;-64
2023/01/28 12:00:30;;;;;;;0.25;0.25;;;;;;;20.85;32.57;103032.00;5059484;28;20540;-63
2023/01/28 12:03:34;;;;;;;0.30;0.22;;;;;;;20.71;33.00;103019.97;5058047;28;20051;-64
2023/01/28 12:06:17;;;;;;;0.30;0.30;;;;;;;20.69;33.04;103013.97;5057424;28;20128;-64
2023/01/28 12:09:08;;;;;;;0.40;0.40;;;;;;;20.56;33.46;102996.63;5058587;28;20049;-64
2023/01/28 12:12:10;;;;;;;0.52;0.52;;;;;;;20.52;33.18;102991.59;5027894;28;20539;-63
2023/01/28 12:14:47;;;;;;;0.45;0.45;;;;;;;20.46;33.46;102996.56;5058018;28;20178;-64
2023/01/28 12:17:31;;;;;;;0.25;0.25;;;;;;;20.42;33.46;103003.09;5058106;28;20364;-63